createdAt,value
2018-11-25T00:00:46.770Z,41.07
2018-11-25T00:03:15.328Z,41.13
2018-11-25T00:05:43.786Z,41.67
2018-11-25T00:08:12.270Z,39.23
2018-11-25T00:10:40.754Z,38.63
2018-11-25T00:13:09.269Z,37.10
2018-11-25T00:17:02.114Z,44.37
2018-11-25T00:19:30.607Z,39.40
2018-11-25T00:21:59.092Z,42.07
2018-11-25T00:24:27.598Z,50.40
2018-11-25T00:26:56.095Z,55.70
2018-11-25T00:29:24.647Z,41.93
2018-11-25T00:31:53.217Z,40.17
2018-11-25T00:34:21.731Z,75.80
2018-11-25T00:36:50.186Z,51.03
2018-11-25T00:39:18.699Z,52.47
2018-11-25T00:41:47.242Z,99.23
2018-11-25T00:44:15.768Z,54.70
2018-11-25T00:46:44.281Z,32.77
2018-11-25T00:49:12.803Z,37.00
2018-11-25T00:51:41.287Z,66.37
2018-11-25T00:54:09.806Z,52.80
2018-11-25T00:56:38.302Z,51.37
2018-11-25T00:59:06.853Z,56.57
2018-11-25T01:01:35.331Z,49.33
2018-11-25T01:04:03.867Z,72.97
2018-11-25T01:06:32.395Z,79.37
2018-11-25T01:09:00.914Z,57.57
2018-11-25T01:11:29.397Z,63.17
2018-11-25T01:13:57.973Z,27.50
2018-11-25T01:16:26.449Z,50.00
2018-11-25T01:18:54.930Z,52.07
2018-11-25T01:21:23.410Z,77.00
2018-11-25T01:23:51.916Z,50.27
2018-11-25T01:26:20.385Z,60.47
2018-11-25T01:28:48.909Z,65.10
2018-11-25T01:31:17.356Z,49.93
2018-11-25T01:33:45.859Z,66.23
2018-11-25T01:36:14.327Z,41.47
2018-11-25T01:38:42.854Z,108.63
2018-11-25T01:41:11.355Z,38.07
2018-11-25T01:43:39.850Z,28.77
2018-11-25T01:46:08.313Z,46.90
2018-11-25T01:48:36.838Z,43.33
2018-11-25T01:51:05.488Z,61.03
2018-11-25T01:53:34.019Z,76.90
2018-11-25T01:56:02.519Z,41.70
2018-11-25T01:58:31.008Z,87.67
2018-11-25T02:00:59.487Z,44.83
2018-11-25T02:03:27.966Z,58.97
2018-11-25T02:05:56.458Z,36.20
2018-11-25T02:08:24.974Z,35.60
2018-11-25T02:10:53.660Z,47.00
2018-11-25T02:13:22.162Z,69.37
2018-11-25T02:15:50.663Z,24.83
2018-11-25T02:18:19.134Z,30.87
2018-11-25T02:20:47.647Z,32.83
2018-11-25T02:23:16.126Z,101.40
2018-11-25T02:25:44.653Z,36.13
2018-11-25T02:28:13.121Z,27.63
2018-11-25T02:30:41.614Z,32.70
2018-11-25T02:33:10.070Z,26.50
2018-11-25T02:35:38.588Z,30.13
2018-11-25T02:38:07.102Z,26.30
2018-11-25T02:40:35.617Z,31.60
2018-11-25T02:43:04.100Z,24.10
2018-11-25T02:45:32.645Z,37.23
2018-11-25T02:48:01.124Z,32.60
2018-11-25T02:50:31.108Z,67.77
2018-11-25T02:53:01.579Z,29.67
2018-11-25T02:55:30.125Z,61.40
2018-11-25T02:57:58.579Z,62.07
2018-11-25T03:00:27.104Z,54.43
2018-11-25T03:02:55.562Z,79.17
2018-11-25T03:05:24.077Z,95.57
2018-11-25T03:07:52.607Z,86.67
2018-11-25T03:10:21.110Z,77.67
2018-11-25T03:12:49.610Z,80.90
2018-11-25T03:15:18.528Z,111.93
2018-11-25T03:17:47.023Z,50.80
2018-11-25T03:20:16.435Z,66.37
2018-11-25T03:22:44.978Z,49.60
2018-11-25T03:25:17.495Z,41.50
2018-11-25T03:27:46.094Z,36.03
2018-11-25T03:30:16.385Z,30.70
2018-11-25T03:32:45.682Z,31.33
2018-11-25T03:35:14.663Z,30.57
2018-11-25T03:37:43.158Z,30.73
2018-11-25T03:40:12.813Z,25.53
2018-11-25T03:42:41.328Z,23.10
2018-11-25T03:45:14.884Z,21.57
2018-11-25T03:47:43.391Z,19.93
2018-11-25T03:50:12.667Z,20.97
2018-11-25T03:52:41.147Z,18.93
2018-11-25T03:55:13.398Z,20.67
2018-11-25T03:57:41.903Z,20.47
2018-11-25T04:00:15.002Z,22.57
2018-11-25T04:02:43.579Z,18.77
2018-11-25T04:05:13.478Z,21.30
2018-11-25T04:07:41.983Z,19.17
2018-11-25T04:10:12.723Z,17.67
2018-11-25T04:12:41.226Z,21.30
2018-11-25T04:15:13.769Z,19.20
2018-11-25T04:17:42.272Z,17.23
2018-11-25T04:20:13.874Z,17.90
2018-11-25T04:22:42.358Z,17.60
2018-11-25T04:25:11.589Z,15.47
2018-11-25T04:27:40.100Z,16.20
2018-11-25T04:30:12.762Z,17.23
2018-11-25T04:32:41.302Z,16.77
2018-11-25T04:35:10.835Z,16.97
2018-11-25T04:37:39.369Z,19.20
2018-11-25T04:40:09.439Z,18.93
2018-11-25T04:42:37.953Z,17.83
2018-11-25T04:45:08.259Z,19.03
2018-11-25T04:47:36.734Z,20.93
2018-11-25T04:50:10.222Z,19.93
2018-11-25T04:52:38.695Z,20.13
2018-11-25T04:55:08.885Z,19.67
2018-11-25T04:57:37.372Z,20.40
2018-11-25T05:00:09.178Z,21.87
2018-11-25T05:02:37.678Z,22.53
2018-11-25T05:05:07.768Z,20.77
2018-11-25T05:07:36.282Z,21.97
2018-11-25T05:10:06.056Z,22.67
2018-11-25T05:12:34.558Z,22.00
2018-11-25T05:15:03.075Z,22.83
2018-11-25T05:17:31.568Z,24.43
2018-11-25T05:20:00.093Z,25.00
2018-11-25T05:22:28.573Z,24.37
2018-11-25T05:24:57.069Z,24.10
2018-11-25T05:27:25.544Z,24.77
2018-11-25T05:29:54.051Z,27.27
2018-11-25T05:32:22.521Z,27.07
2018-11-25T05:34:51.019Z,27.70
2018-11-25T05:37:19.502Z,26.13
2018-11-25T05:39:49.865Z,26.47
2018-11-25T05:42:18.362Z,26.83
2018-11-25T05:44:46.847Z,28.93
2018-11-25T05:47:15.293Z,26.53
2018-11-25T05:49:43.825Z,24.23
2018-11-25T05:52:12.287Z,26.23
2018-11-25T05:54:40.790Z,25.17
2018-11-25T05:57:09.278Z,26.17
2018-11-25T05:59:37.742Z,26.23
2018-11-25T06:02:06.622Z,26.53
2018-11-25T06:04:35.120Z,28.23
2018-11-25T06:07:03.588Z,26.67
2018-11-25T06:09:32.097Z,25.23
2018-11-25T06:12:00.598Z,25.73
2018-11-25T06:14:29.095Z,25.83
2018-11-25T06:17:06.399Z,27.50
2018-11-25T06:19:34.924Z,25.10
2018-11-25T06:22:03.428Z,25.53
2018-11-25T06:24:31.905Z,23.90
2018-11-25T06:27:00.406Z,24.53
2018-11-25T06:29:28.926Z,30.93
2018-11-25T06:31:57.443Z,30.17
2018-11-25T06:34:25.891Z,30.03
2018-11-25T06:36:54.393Z,31.37
2018-11-25T06:39:22.851Z,31.57
2018-11-25T06:41:51.334Z,29.93
2018-11-25T06:44:19.819Z,30.03
2018-11-25T06:46:48.430Z,29.87
2018-11-25T06:49:16.916Z,31.43
2018-11-25T06:51:45.422Z,30.93
2018-11-25T06:54:13.882Z,31.43
2018-11-25T06:56:42.397Z,31.87
2018-11-25T06:59:10.883Z,33.57
2018-11-25T07:01:39.372Z,29.50
2018-11-25T07:04:08.732Z,31.17
2018-11-25T07:06:37.276Z,30.83
2018-11-25T07:09:11.211Z,27.77
2018-11-25T07:11:39.735Z,26.73
2018-11-25T07:14:08.306Z,26.83
2018-11-25T07:16:36.854Z,28.40
2018-11-25T07:19:05.939Z,26.23
2018-11-25T07:21:34.636Z,26.33
2018-11-25T07:24:03.142Z,24.37
2018-11-25T07:26:31.667Z,26.33
2018-11-25T07:29:01.499Z,24.83
2018-11-25T07:31:30.019Z,26.00
2018-11-25T07:33:58.486Z,31.27
2018-11-25T07:36:26.969Z,32.93
2018-11-25T07:38:55.578Z,28.83
2018-11-25T07:41:24.054Z,29.20
2018-11-25T07:43:52.502Z,29.83
2018-11-25T07:46:20.999Z,26.93
2018-11-25T07:48:49.445Z,24.93
2018-11-25T07:51:17.949Z,26.93
2018-11-25T07:53:46.443Z,24.83
2018-11-25T07:56:14.955Z,28.00
2018-11-25T07:58:43.443Z,27.73
2018-11-25T08:01:11.922Z,24.03
2018-11-25T08:03:40.398Z,25.47
2018-11-25T08:06:08.906Z,24.20
2018-11-25T08:08:37.405Z,22.77
2018-11-25T08:11:06.114Z,24.00
2018-11-25T08:13:34.643Z,23.37
2018-11-25T08:16:03.193Z,21.93
2018-11-25T08:18:31.683Z,23.53
2018-11-25T08:21:00.201Z,24.00
2018-11-25T08:23:28.709Z,24.57
2018-11-25T08:25:57.203Z,23.77
2018-11-25T08:28:25.707Z,24.03
2018-11-25T08:30:54.225Z,24.73
2018-11-25T08:33:22.708Z,25.40
2018-11-25T08:35:51.252Z,26.50
2018-11-25T08:38:19.735Z,24.93
2018-11-25T08:40:48.347Z,25.83
2018-11-25T08:43:16.822Z,26.83
2018-11-25T08:45:45.335Z,23.27
2018-11-25T08:48:13.802Z,23.20
2018-11-25T08:50:42.306Z,22.33
2018-11-25T08:53:10.786Z,22.57
2018-11-25T08:55:39.282Z,22.73
2018-11-25T08:58:07.977Z,21.63
2018-11-25T09:00:37.076Z,21.67
2018-11-25T09:03:05.600Z,22.93
2018-11-25T09:05:34.927Z,23.90
2018-11-25T09:08:02.676Z,22.57
2018-11-25T09:10:31.185Z,24.50
2018-11-25T09:12:59.727Z,25.53
2018-11-25T09:15:29.622Z,23.63
2018-11-25T09:17:58.269Z,22.90
2018-11-25T09:20:26.781Z,24.67
2018-11-25T09:22:55.329Z,24.20
2018-11-25T09:25:28.883Z,24.73
2018-11-25T09:27:58.163Z,25.37
2018-11-25T09:30:27.666Z,22.60
2018-11-25T09:32:56.213Z,23.20
2018-11-25T09:35:25.242Z,23.03
2018-11-25T09:37:53.773Z,24.13
2018-11-25T09:40:23.546Z,22.60
2018-11-25T09:42:52.099Z,21.87
2018-11-25T09:45:21.113Z,22.53
2018-11-25T09:47:50.059Z,23.47
2018-11-25T09:50:20.403Z,20.60
2018-11-25T09:52:48.942Z,20.60
2018-11-25T09:55:18.427Z,19.97
2018-11-25T09:57:50.188Z,21.63
2018-11-25T10:00:28.399Z,21.73
2018-11-25T10:02:56.948Z,18.73
2018-11-25T10:05:25.475Z,19.47
2018-11-25T10:07:54.022Z,18.70
2018-11-25T10:10:23.574Z,20.03
2018-11-25T10:12:52.136Z,17.67
2018-11-25T10:15:21.836Z,18.63
2018-11-25T10:17:50.372Z,18.93
2018-11-25T10:20:20.007Z,16.27
2018-11-25T10:22:48.541Z,14.83
2018-11-25T10:25:17.442Z,13.53
2018-11-25T10:27:46.028Z,15.03
2018-11-25T10:30:23.150Z,13.57
2018-11-25T10:32:52.778Z,13.23
2018-11-25T10:35:21.298Z,12.90
2018-11-25T10:37:49.830Z,12.07
2018-11-25T10:40:19.439Z,12.90
2018-11-25T10:42:48.006Z,13.97
2018-11-25T10:45:17.605Z,13.27
2018-11-25T10:47:46.148Z,11.73
2018-11-25T10:50:16.561Z,9.07
2018-11-25T10:52:45.107Z,10.60
2018-11-25T10:55:14.501Z,9.23
2018-11-25T10:57:43.936Z,10.80
2018-11-25T11:00:36.550Z,9.20
2018-11-25T11:03:11.571Z,8.77
2018-11-25T11:05:45.240Z,9.13
2018-11-25T11:08:13.768Z,9.27
2018-11-25T11:10:42.263Z,8.50
2018-11-25T11:13:10.819Z,7.37
2018-11-25T11:15:39.347Z,14.60
2018-11-25T11:18:08.222Z,29.83
2018-11-25T11:20:36.730Z,11.83
2018-11-25T11:23:05.327Z,8.00
2018-11-25T11:25:33.823Z,8.73
2018-11-25T11:28:02.363Z,9.17
2018-11-25T11:30:30.887Z,8.13
2018-11-25T11:32:59.415Z,13.53
2018-11-25T11:35:27.946Z,8.10
2018-11-25T11:37:56.480Z,7.80
2018-11-25T11:40:24.969Z,10.03
2018-11-25T11:42:53.510Z,11.07
2018-11-25T11:45:21.997Z,6.63
2018-11-25T11:47:50.523Z,10.17
2018-11-25T11:50:20.544Z,6.13
2018-11-25T11:52:49.061Z,5.93
2018-11-25T11:55:18.309Z,5.90
2018-11-25T11:57:47.590Z,5.13
2018-11-25T12:00:25.644Z,5.20
2018-11-25T12:02:54.189Z,5.60
2018-11-25T12:05:22.689Z,5.50
2018-11-25T12:07:51.227Z,6.13
2018-11-25T12:10:20.031Z,5.83
2018-11-25T12:12:48.566Z,6.20
2018-11-25T12:15:19.648Z,6.93
2018-11-25T12:17:48.167Z,6.03
2018-11-25T12:20:16.630Z,6.30
2018-11-25T12:22:45.564Z,5.60
2018-11-25T12:25:15.955Z,5.77
2018-11-25T12:27:44.530Z,5.43
2018-11-25T12:30:15.033Z,5.63
2018-11-25T12:32:44.551Z,5.83
2018-11-25T12:35:14.094Z,5.20
2018-11-25T12:37:42.836Z,5.53
2018-11-25T12:40:12.892Z,5.13
2018-11-25T12:42:41.941Z,5.40
2018-11-25T12:45:12.355Z,9.30
2018-11-25T12:47:40.862Z,5.20
2018-11-25T12:50:11.110Z,5.37
2018-11-25T12:52:39.660Z,5.70
2018-11-25T12:55:11.926Z,6.53
2018-11-25T12:57:40.624Z,5.87
2018-11-25T13:00:16.947Z,5.40
2018-11-25T13:02:45.614Z,5.60
2018-11-25T13:05:17.493Z,6.17
2018-11-25T13:07:46.010Z,6.10
2018-11-25T13:10:14.736Z,7.20
2018-11-25T13:12:43.250Z,6.40
2018-11-25T13:15:11.780Z,6.20
2018-11-25T13:17:40.252Z,6.73
2018-11-25T13:20:12.101Z,7.30
2018-11-25T13:22:40.968Z,7.03
2018-11-25T13:25:10.882Z,7.57
2018-11-25T13:27:39.477Z,7.80
2018-11-25T13:30:12.835Z,8.03
2018-11-25T13:32:41.446Z,7.03
2018-11-25T13:35:10.463Z,6.70
2018-11-25T13:37:39.017Z,6.47
2018-11-25T13:40:10.203Z,7.40
2018-11-25T13:42:38.712Z,7.13
2018-11-25T13:45:06.014Z,7.10
2018-11-25T13:47:34.506Z,7.87
2018-11-25T13:50:03.066Z,7.43
2018-11-25T13:52:31.570Z,7.90
2018-11-25T13:55:01.358Z,7.53
2018-11-25T13:57:29.860Z,7.77
2018-11-25T13:59:58.454Z,7.03
2018-11-25T14:02:27.016Z,8.10
2018-11-25T14:04:55.994Z,8.57
2018-11-25T14:07:24.481Z,8.87
2018-11-25T14:09:53.003Z,8.10
2018-11-25T14:12:21.515Z,9.67
2018-11-25T14:14:50.039Z,8.57
2018-11-25T14:17:18.535Z,9.50
2018-11-25T14:19:47.084Z,10.40
2018-11-25T14:22:15.671Z,8.87
2018-11-25T14:24:44.206Z,9.13
2018-11-25T14:27:12.721Z,9.37
2018-11-25T14:29:41.235Z,9.00
2018-11-25T14:32:10.035Z,8.90
2018-11-25T14:34:38.545Z,10.40
2018-11-25T14:37:07.108Z,8.43
2018-11-25T14:39:35.647Z,10.33
2018-11-25T14:42:04.166Z,8.30
2018-11-25T14:44:32.670Z,9.57
2018-11-25T14:47:01.262Z,9.03
2018-11-25T14:49:30.064Z,8.63
2018-11-25T14:51:59.823Z,9.30
2018-11-25T14:54:28.323Z,9.07
2018-11-25T14:56:56.936Z,10.60
2018-11-25T14:59:25.407Z,8.93
2018-11-25T15:01:53.975Z,10.33
2018-11-25T15:04:22.503Z,9.23
2018-11-25T15:06:51.059Z,10.83
2018-11-25T15:09:19.564Z,9.60
2018-11-25T15:11:48.080Z,10.87
2018-11-25T15:14:16.615Z,15.67
2018-11-25T15:16:45.178Z,12.67
2018-11-25T15:19:13.670Z,14.30
2018-11-25T15:21:42.243Z,14.37
2018-11-25T15:24:10.780Z,12.53
2018-11-25T15:26:39.348Z,14.20
2018-11-25T15:29:07.866Z,13.47
2018-11-25T15:31:36.423Z,14.77
2018-11-25T15:34:04.980Z,20.20
2018-11-25T15:36:33.544Z,16.50
2018-11-25T15:39:02.058Z,14.80
2018-11-25T15:41:30.598Z,13.93
2018-11-25T15:43:59.107Z,16.37
2018-11-25T15:46:27.637Z,14.47
2018-11-25T15:48:56.182Z,13.73
2018-11-25T15:51:25.610Z,11.20
2018-11-25T15:53:54.159Z,14.10
2018-11-25T15:56:22.840Z,10.73
2018-11-25T15:58:52.242Z,11.60
2018-11-25T16:01:20.786Z,11.73
2018-11-25T16:03:49.315Z,11.10
2018-11-25T16:06:24.287Z,12.30
2018-11-25T16:08:52.826Z,12.57
2018-11-25T16:11:21.390Z,11.60
2018-11-25T16:13:49.899Z,13.53
2018-11-25T16:16:18.416Z,14.00
2018-11-25T16:18:46.917Z,14.17
2018-11-25T16:21:15.478Z,14.50
2018-11-25T16:23:43.959Z,12.07
2018-11-25T16:26:50.773Z,11.93
2018-11-25T16:29:23.770Z,10.93
2018-11-25T16:31:52.294Z,12.33
2018-11-25T16:34:20.794Z,12.53
2018-11-25T16:36:49.988Z,14.40
2018-11-25T16:39:18.482Z,13.97
2018-11-25T16:41:47.005Z,11.43
2018-11-25T16:44:15.522Z,13.97
2018-11-25T16:46:44.041Z,12.83
2018-11-25T16:49:12.648Z,13.33
2018-11-25T16:51:41.180Z,14.13
2018-11-25T16:54:09.770Z,13.67
2018-11-25T16:56:38.255Z,13.53
2018-11-25T16:59:06.810Z,13.77
2018-11-25T17:01:35.322Z,14.10
2018-11-25T17:04:03.866Z,12.27
2018-11-25T17:06:32.958Z,12.93
2018-11-25T17:09:01.472Z,13.10
2018-11-25T17:11:31.088Z,13.13
2018-11-25T17:13:59.635Z,13.80
2018-11-25T17:16:28.150Z,13.30
2018-11-25T17:18:56.698Z,11.33
2018-11-25T17:21:25.175Z,11.20
2018-11-25T17:23:54.818Z,9.90
2018-11-25T17:26:23.307Z,11.23
2018-11-25T17:28:51.828Z,11.63
2018-11-25T17:31:20.390Z,11.07
2018-11-25T17:33:48.891Z,9.93
2018-11-25T17:36:17.410Z,9.93
2018-11-25T17:38:45.924Z,9.63
2018-11-25T17:41:14.414Z,9.47
2018-11-25T17:43:42.916Z,8.07
2018-11-25T17:46:11.938Z,10.20
2018-11-25T17:48:40.455Z,9.20
2018-11-25T17:51:08.950Z,8.67
2018-11-25T17:53:37.807Z,8.10
2018-11-25T17:56:06.823Z,7.40
2018-11-25T17:58:35.394Z,9.03
2018-11-25T18:01:06.047Z,10.10
2018-11-25T18:03:36.173Z,8.47
2018-11-25T18:06:04.858Z,7.90
2018-11-25T18:08:33.454Z,8.07
2018-11-25T18:11:02.062Z,6.93
2018-11-25T18:13:34.051Z,8.30
2018-11-25T18:16:03.826Z,7.40
2018-11-25T18:18:50.103Z,8.37
2018-11-25T18:21:21.607Z,8.43
2018-11-25T18:23:50.123Z,10.07
2018-11-25T18:26:18.706Z,11.83
2018-11-25T18:28:47.226Z,12.03
2018-11-25T18:31:15.721Z,12.97
2018-11-25T18:33:44.345Z,13.90
2018-11-25T18:36:14.325Z,13.30
2018-11-25T18:38:42.857Z,11.10
2018-11-25T18:41:11.411Z,11.20
2018-11-25T18:43:40.205Z,11.07
2018-11-25T18:46:08.759Z,11.33
2018-11-25T18:48:39.443Z,10.73
2018-11-25T18:51:07.983Z,10.77
2018-11-25T18:53:37.714Z,14.20
2018-11-25T18:56:06.518Z,11.33
2018-11-25T18:58:35.022Z,12.27
2018-11-25T19:01:13.910Z,11.27
2018-11-25T19:03:44.005Z,11.83
2018-11-25T19:06:12.551Z,12.93
2018-11-25T19:08:41.195Z,11.10
2018-11-25T19:11:09.695Z,11.60
2018-11-25T19:13:38.213Z,11.40
2018-11-25T19:16:06.798Z,10.73
2018-11-25T19:18:35.610Z,11.27
2018-11-25T19:21:04.112Z,11.73
2018-11-25T19:23:32.610Z,12.07
2018-11-25T19:26:01.091Z,12.23
2018-11-25T19:28:29.608Z,13.57
2018-11-25T19:30:58.084Z,15.40
2018-11-25T19:33:28.047Z,12.77
2018-11-25T19:35:56.549Z,13.53
2018-11-25T19:38:25.033Z,14.40
2018-11-25T19:40:53.534Z,14.60
2018-11-25T19:43:22.075Z,16.10
2018-11-25T19:45:50.556Z,14.23
2018-11-25T19:48:19.060Z,10.53
2018-11-25T19:50:47.559Z,10.83
2018-11-25T19:53:16.093Z,11.03
2018-11-25T19:55:44.578Z,9.33
2018-11-25T19:58:13.096Z,10.17
2018-11-25T20:00:41.570Z,11.20
2018-11-25T20:03:10.061Z,10.07
2018-11-25T20:05:38.600Z,12.20
2018-11-25T20:08:07.778Z,10.07
2018-11-25T20:10:36.301Z,11.80
2018-11-25T20:13:05.131Z,10.73
2018-11-25T20:15:33.666Z,10.43
2018-11-25T20:18:02.170Z,9.87
2018-11-25T20:20:30.698Z,11.30
2018-11-25T20:22:59.235Z,12.40
2018-11-25T20:25:27.740Z,10.30
2018-11-25T20:27:56.963Z,9.50
2018-11-25T20:30:29.016Z,10.23
2018-11-25T20:33:02.695Z,9.63
2018-11-25T20:35:31.226Z,11.20
2018-11-25T20:38:05.083Z,11.10
2018-11-25T20:40:33.627Z,10.97
2018-11-25T20:43:02.114Z,9.30
2018-11-25T20:45:39.084Z,10.23
2018-11-25T20:48:04.453Z,11.27
2018-11-25T20:50:32.977Z,11.17
2018-11-25T20:53:06.683Z,9.20
2018-11-25T20:55:35.183Z,9.30
2018-11-25T20:58:03.682Z,9.50
2018-11-25T21:01:56.662Z,9.50
2018-11-25T21:04:25.169Z,9.73
2018-11-25T21:06:53.634Z,11.33
2018-11-25T21:09:22.182Z,9.17
2018-11-25T21:11:50.654Z,10.37
2018-11-25T21:14:19.200Z,12.13
2018-11-25T21:16:47.703Z,10.27
2018-11-25T21:19:16.180Z,10.90
2018-11-25T21:21:44.711Z,11.90
2018-11-25T21:24:13.203Z,10.70
2018-11-25T21:26:41.839Z,10.80
2018-11-25T21:29:10.501Z,12.70
2018-11-25T21:31:39.025Z,10.87
2018-11-25T21:34:07.526Z,12.13
2018-11-25T21:36:36.020Z,12.37
2018-11-25T21:39:07.352Z,11.93
2018-11-25T21:41:35.858Z,12.83
2018-11-25T21:44:04.382Z,13.40
2018-11-25T21:46:32.857Z,13.27
2018-11-25T21:49:01.326Z,13.50
2018-11-25T21:51:29.913Z,12.47
2018-11-25T21:53:58.411Z,14.83
2018-11-25T21:56:26.944Z,12.47
2018-11-25T21:58:55.419Z,15.03
2018-11-25T22:01:23.963Z,13.57
2018-11-25T22:03:52.445Z,15.23
2018-11-25T22:06:20.955Z,12.30
2018-11-25T22:08:49.938Z,14.37
2018-11-25T22:11:18.466Z,15.10
2018-11-25T22:13:46.942Z,16.03
2018-11-25T22:16:15.461Z,16.43
2018-11-25T22:18:43.958Z,13.87
2018-11-25T22:21:12.477Z,13.77
2018-11-25T22:23:40.934Z,14.97
2018-11-25T22:26:09.541Z,14.53
2018-11-25T22:28:38.021Z,14.10
2018-11-25T22:31:07.210Z,13.13
2018-11-25T22:33:35.751Z,13.63
2018-11-25T22:36:04.309Z,12.60
2018-11-25T22:38:32.814Z,13.70
2018-11-25T22:41:01.344Z,14.50
2018-11-25T22:43:29.806Z,15.60
2018-11-25T22:45:58.328Z,13.77
2018-11-25T22:48:26.817Z,17.23
2018-11-25T22:50:55.367Z,17.00
2018-11-25T22:53:23.889Z,15.73
2018-11-25T22:55:52.399Z,17.53
2018-11-25T22:58:20.950Z,18.07
2018-11-25T23:00:52.542Z,16.23
2018-11-25T23:03:22.119Z,17.17
2018-11-25T23:08:02.289Z,16.80
2018-11-25T23:10:30.813Z,16.07
2018-11-25T23:12:59.370Z,15.63
2018-11-25T23:15:27.875Z,17.27
2018-11-25T23:17:56.394Z,17.73
2018-11-25T23:20:24.891Z,16.40
2018-11-25T23:22:53.474Z,19.80
2018-11-25T23:25:21.982Z,17.30
2018-11-25T23:27:50.507Z,18.23
2018-11-25T23:30:18.986Z,17.07
2018-11-25T23:32:47.510Z,16.17
2018-11-25T23:35:20.463Z,15.87
2018-11-25T23:37:48.974Z,16.93
2018-11-25T23:40:17.461Z,17.20
2018-11-25T23:42:46.052Z,16.43
2018-11-25T23:45:15.658Z,17.53
2018-11-25T23:47:44.226Z,17.70
2018-11-25T23:50:13.691Z,15.90
2018-11-25T23:52:43.230Z,19.10
2018-11-25T23:55:13.801Z,18.97
2018-11-25T23:57:42.359Z,20.30
